sensor_id;sensor_type;location;lat;lon;timestamp;temperature;humidity
20712;DHT22;10517;50.742;4.224;2022-07-23T00:00:50;15.90;99.90
20712;DHT22;10517;50.742;4.224;2022-07-23T00:03:16;15.90;99.90
20712;DHT22;10517;50.742;4.224;2022-07-23T00:05:42;15.90;99.90
20712;DHT22;10517;50.742;4.224;2022-07-23T00:08:07;15.80;99.90
20712;DHT22;10517;50.742;4.224;2022-07-23T00:10:33;15.80;99.90
20712;DHT22;10517;50.742;4.224;2022-07-23T00:12:59;15.80;99.90
20712;DHT22;10517;50.742;4.224;2022-07-23T00:15:25;15.70;99.90
20712;DHT22;10517;50.742;4.224;2022-07-23T00:17:50;15.70;99.90
20712;DHT22;10517;50.742;4.224;2022-07-23T00:20:16;15.70;99.90
20712;DHT22;10517;50.742;4.224;2022-07-23T00:22:50;15.60;99.90
20712;DHT22;10517;50.742;4.224;2022-07-23T00:25:15;15.60;99.90
20712;DHT22;10517;50.742;4.224;2022-07-23T00:27:41;15.60;99.90
20712;DHT22;10517;50.742;4.224;2022-07-23T00:30:08;15.60;99.90
20712;DHT22;10517;50.742;4.224;2022-07-23T00:32:49;15.60;99.90
20712;DHT22;10517;50.742;4.224;2022-07-23T00:35:15;15.50;99.90
20712;DHT22;10517;50.742;4.224;2022-07-23T00:37:41;15.50;99.90
20712;DHT22;10517;50.742;4.224;2022-07-23T00:40:07;15.50;99.90
20712;DHT22;10517;50.742;4.224;2022-07-23T00:42:33;15.40;99.90
20712;DHT22;10517;50.742;4.224;2022-07-23T00:44:58;15.40;99.90
20712;DHT22;10517;50.742;4.224;2022-07-23T00:47:24;15.50;99.90
20712;DHT22;10517;50.742;4.224;2022-07-23T00:49:50;15.50;99.90
20712;DHT22;10517;50.742;4.224;2022-07-23T00:52:15;15.50;99.90
20712;DHT22;10517;50.742;4.224;2022-07-23T00:54:41;15.50;99.90
20712;DHT22;10517;50.742;4.224;2022-07-23T00:57:07;15.40;99.90
20712;DHT22;10517;50.742;4.224;2022-07-23T00:59:33;15.40;99.90
20712;DHT22;10517;50.742;4.224;2022-07-23T01:01:59;15.30;99.90
20712;DHT22;10517;50.742;4.224;2022-07-23T01:04:25;15.30;99.90
20712;DHT22;10517;50.742;4.224;2022-07-23T01:06:50;15.30;99.90
20712;DHT22;10517;50.742;4.224;2022-07-23T01:09:16;15.30;99.90
20712;DHT22;10517;50.742;4.224;2022-07-23T01:11:42;15.20;99.90
20712;DHT22;10517;50.742;4.224;2022-07-23T01:14:16;15.20;99.90
20712;DHT22;10517;50.742;4.224;2022-07-23T01:16:44;15.20;99.90
20712;DHT22;10517;50.742;4.224;2022-07-23T01:19:10;15.20;99.90
20712;DHT22;10517;50.742;4.224;2022-07-23T01:21:43;15.20;99.90
20712;DHT22;10517;50.742;4.224;2022-07-23T01:24:10;15.10;99.90
20712;DHT22;10517;50.742;4.224;2022-07-23T01:26:36;15.10;99.90
20712;DHT22;10517;50.742;4.224;2022-07-23T01:29:03;15.20;99.90
20712;DHT22;10517;50.742;4.224;2022-07-23T01:31:29;15.20;99.90
20712;DHT22;10517;50.742;4.224;2022-07-23T01:33:55;15.20;99.90
20712;DHT22;10517;50.742;4.224;2022-07-23T01:36:21;15.20;99.90
20712;DHT22;10517;50.742;4.224;2022-07-23T01:38:47;15.20;99.90
20712;DHT22;10517;50.742;4.224;2022-07-23T01:41:12;15.20;99.90
20712;DHT22;10517;50.742;4.224;2022-07-23T01:43:38;15.20;99.90
20712;DHT22;10517;50.742;4.224;2022-07-23T01:46:04;15.10;99.90
20712;DHT22;10517;50.742;4.224;2022-07-23T01:48:29;15.20;99.90
20712;DHT22;10517;50.742;4.224;2022-07-23T01:50:55;15.20;99.90
20712;DHT22;10517;50.742;4.224;2022-07-23T01:53:20;15.10;99.90
20712;DHT22;10517;50.742;4.224;2022-07-23T01:55:46;15.00;99.90
20712;DHT22;10517;50.742;4.224;2022-07-23T01:58:12;15.00;99.90
20712;DHT22;10517;50.742;4.224;2022-07-23T02:00:37;15.00;99.90
20712;DHT22;10517;50.742;4.224;2022-07-23T02:03:03;15.00;99.90
20712;DHT22;10517;50.742;4.224;2022-07-23T02:05:29;15.00;99.90
20712;DHT22;10517;50.742;4.224;2022-07-23T02:07:55;15.10;99.90
20712;DHT22;10517;50.742;4.224;2022-07-23T02:10:21;14.80;99.90
20712;DHT22;10517;50.742;4.224;2022-07-23T02:12:47;14.90;99.90
20712;DHT22;10517;50.742;4.224;2022-07-23T02:15:13;14.80;99.90
20712;DHT22;10517;50.742;4.224;2022-07-23T02:17:39;14.70;99.90
20712;DHT22;10517;50.742;4.224;2022-07-23T02:20:06;14.70;99.90
20712;DHT22;10517;50.742;4.224;2022-07-23T02:22:32;14.70;99.90
20712;DHT22;10517;50.742;4.224;2022-07-23T02:24:57;14.70;99.90
20712;DHT22;10517;50.742;4.224;2022-07-23T02:27:23;14.70;99.90
20712;DHT22;10517;50.742;4.224;2022-07-23T02:29:49;14.70;99.90
20712;DHT22;10517;50.742;4.224;2022-07-23T02:32:15;14.60;99.90
20712;DHT22;10517;50.742;4.224;2022-07-23T02:34:40;14.60;99.90
20712;DHT22;10517;50.742;4.224;2022-07-23T02:37:06;14.60;99.90
20712;DHT22;10517;50.742;4.224;2022-07-23T02:39:34;14.60;99.90
20712;DHT22;10517;50.742;4.224;2022-07-23T02:42:00;14.60;99.90
20712;DHT22;10517;50.742;4.224;2022-07-23T02:44:29;14.60;99.90
20712;DHT22;10517;50.742;4.224;2022-07-23T02:46:54;14.60;99.90
20712;DHT22;10517;50.742;4.224;2022-07-23T02:49:20;14.60;99.90
20712;DHT22;10517;50.742;4.224;2022-07-23T02:51:45;14.60;99.90
20712;DHT22;10517;50.742;4.224;2022-07-23T02:54:11;14.60;99.90
20712;DHT22;10517;50.742;4.224;2022-07-23T02:56:37;14.60;99.90
20712;DHT22;10517;50.742;4.224;2022-07-23T02:59:02;14.50;99.90
20712;DHT22;10517;50.742;4.224;2022-07-23T03:01:28;14.50;99.90
20712;DHT22;10517;50.742;4.224;2022-07-23T03:03:53;14.50;99.90
20712;DHT22;10517;50.742;4.224;2022-07-23T03:06:19;14.50;99.90
20712;DHT22;10517;50.742;4.224;2022-07-23T03:08:45;14.50;99.90
20712;DHT22;10517;50.742;4.224;2022-07-23T03:11:10;14.40;99.90
20712;DHT22;10517;50.742;4.224;2022-07-23T03:13:39;14.40;99.90
20712;DHT22;10517;50.742;4.224;2022-07-23T03:16:06;14.40;99.90
20712;DHT22;10517;50.742;4.224;2022-07-23T03:18:32;14.40;99.90
20712;DHT22;10517;50.742;4.224;2022-07-23T03:20:57;14.30;99.90
20712;DHT22;10517;50.742;4.224;2022-07-23T03:23:23;14.40;99.90
20712;DHT22;10517;50.742;4.224;2022-07-23T03:25:49;14.40;99.90
20712;DHT22;10517;50.742;4.224;2022-07-23T03:28:15;14.30;99.90
20712;DHT22;10517;50.742;4.224;2022-07-23T03:30:42;14.30;99.90
20712;DHT22;10517;50.742;4.224;2022-07-23T03:33:08;14.40;99.90
20712;DHT22;10517;50.742;4.224;2022-07-23T03:35:34;14.40;99.90
20712;DHT22;10517;50.742;4.224;2022-07-23T03:37:59;14.30;99.90
20712;DHT22;10517;50.742;4.224;2022-07-23T03:40:25;14.30;99.90
20712;DHT22;10517;50.742;4.224;2022-07-23T03:42:51;14.30;99.90
20712;DHT22;10517;50.742;4.224;2022-07-23T03:45:16;14.30;99.90
20712;DHT22;10517;50.742;4.224;2022-07-23T03:47:42;14.30;99.90
20712;DHT22;10517;50.742;4.224;2022-07-23T03:50:09;14.30;99.90
20712;DHT22;10517;50.742;4.224;2022-07-23T03:52:34;14.30;99.90
20712;DHT22;10517;50.742;4.224;2022-07-23T03:55:01;14.40;99.90
20712;DHT22;10517;50.742;4.224;2022-07-23T03:57:26;14.40;99.90
20712;DHT22;10517;50.742;4.224;2022-07-23T03:59:52;14.50;99.90
20712;DHT22;10517;50.742;4.224;2022-07-23T04:02:18;14.50;99.90
20712;DHT22;10517;50.742;4.224;2022-07-23T04:04:43;14.60;99.90
20712;DHT22;10517;50.742;4.224;2022-07-23T04:07:09;14.70;99.90
20712;DHT22;10517;50.742;4.224;2022-07-23T04:09:34;14.80;99.90
20712;DHT22;10517;50.742;4.224;2022-07-23T04:12:00;14.80;99.90
20712;DHT22;10517;50.742;4.224;2022-07-23T04:14:26;14.90;99.90
20712;DHT22;10517;50.742;4.224;2022-07-23T04:16:52;15.00;99.90
20712;DHT22;10517;50.742;4.224;2022-07-23T04:19:17;15.00;99.90
20712;DHT22;10517;50.742;4.224;2022-07-23T04:21:43;15.10;99.90
20712;DHT22;10517;50.742;4.224;2022-07-23T04:24:08;15.20;99.90
20712;DHT22;10517;50.742;4.224;2022-07-23T04:26:34;15.20;99.90
20712;DHT22;10517;50.742;4.224;2022-07-23T04:29:00;15.30;99.90
20712;DHT22;10517;50.742;4.224;2022-07-23T04:31:25;15.40;99.90
20712;DHT22;10517;50.742;4.224;2022-07-23T04:33:51;15.40;99.90
20712;DHT22;10517;50.742;4.224;2022-07-23T04:36:16;15.50;99.90
20712;DHT22;10517;50.742;4.224;2022-07-23T04:38:42;15.60;99.90
20712;DHT22;10517;50.742;4.224;2022-07-23T04:41:08;15.70;99.90
20712;DHT22;10517;50.742;4.224;2022-07-23T04:43:33;15.80;99.90
20712;DHT22;10517;50.742;4.224;2022-07-23T04:45:59;15.70;99.90
20712;DHT22;10517;50.742;4.224;2022-07-23T04:48:24;15.70;99.90
20712;DHT22;10517;50.742;4.224;2022-07-23T04:50:50;15.70;99.90
20712;DHT22;10517;50.742;4.224;2022-07-23T04:53:16;15.70;99.90
20712;DHT22;10517;50.742;4.224;2022-07-23T04:55:43;15.70;99.90
20712;DHT22;10517;50.742;4.224;2022-07-23T04:58:09;15.70;99.90
20712;DHT22;10517;50.742;4.224;2022-07-23T05:00:35;15.80;99.90
20712;DHT22;10517;50.742;4.224;2022-07-23T05:03:01;15.90;99.90
20712;DHT22;10517;50.742;4.224;2022-07-23T05:05:27;16.00;99.90
20712;DHT22;10517;50.742;4.224;2022-07-23T05:07:52;16.10;99.90
20712;DHT22;10517;50.742;4.224;2022-07-23T05:10:18;16.20;99.90
20712;DHT22;10517;50.742;4.224;2022-07-23T05:12:44;16.30;99.90
20712;DHT22;10517;50.742;4.224;2022-07-23T05:15:09;16.30;99.90
20712;DHT22;10517;50.742;4.224;2022-07-23T05:17:35;16.40;99.90
20712;DHT22;10517;50.742;4.224;2022-07-23T05:20:00;16.40;99.90
20712;DHT22;10517;50.742;4.224;2022-07-23T05:22:26;16.40;99.90
20712;DHT22;10517;50.742;4.224;2022-07-23T05:24:52;16.40;99.90
20712;DHT22;10517;50.742;4.224;2022-07-23T05:27:17;16.50;99.90
20712;DHT22;10517;50.742;4.224;2022-07-23T05:29:43;16.50;99.90
20712;DHT22;10517;50.742;4.224;2022-07-23T05:32:08;16.50;99.90
20712;DHT22;10517;50.742;4.224;2022-07-23T05:34:34;16.40;99.90
20712;DHT22;10517;50.742;4.224;2022-07-23T05:37:00;16.30;99.90
20712;DHT22;10517;50.742;4.224;2022-07-23T05:39:25;16.30;99.90
20712;DHT22;10517;50.742;4.224;2022-07-23T05:41:51;16.30;99.90
20712;DHT22;10517;50.742;4.224;2022-07-23T05:44:17;16.30;99.90
20712;DHT22;10517;50.742;4.224;2022-07-23T05:46:42;16.30;99.90
20712;DHT22;10517;50.742;4.224;2022-07-23T05:49:08;16.30;99.90
20712;DHT22;10517;50.742;4.224;2022-07-23T05:51:34;16.30;99.90
20712;DHT22;10517;50.742;4.224;2022-07-23T05:53:59;16.40;99.90
20712;DHT22;10517;50.742;4.224;2022-07-23T05:56:25;16.50;99.90
20712;DHT22;10517;50.742;4.224;2022-07-23T05:58:50;16.70;99.90
20712;DHT22;10517;50.742;4.224;2022-07-23T06:01:16;16.80;99.90
20712;DHT22;10517;50.742;4.224;2022-07-23T06:03:42;17.00;99.90
20712;DHT22;10517;50.742;4.224;2022-07-23T06:06:07;17.20;99.90
20712;DHT22;10517;50.742;4.224;2022-07-23T06:08:33;17.30;99.90
20712;DHT22;10517;50.742;4.224;2022-07-23T06:10:58;17.40;99.90
20712;DHT22;10517;50.742;4.224;2022-07-23T06:13:24;17.50;99.90
20712;DHT22;10517;50.742;4.224;2022-07-23T06:15:50;17.50;99.90
20712;DHT22;10517;50.742;4.224;2022-07-23T06:18:16;17.50;99.90
20712;DHT22;10517;50.742;4.224;2022-07-23T06:20:41;17.50;99.90
20712;DHT22;10517;50.742;4.224;2022-07-23T06:23:07;17.60;99.90
20712;DHT22;10517;50.742;4.224;2022-07-23T06:25:32;17.70;99.90
20712;DHT22;10517;50.742;4.224;2022-07-23T06:27:58;17.80;99.90
20712;DHT22;10517;50.742;4.224;2022-07-23T06:30:24;18.00;99.90
20712;DHT22;10517;50.742;4.224;2022-07-23T06:32:49;18.10;99.90
20712;DHT22;10517;50.742;4.224;2022-07-23T06:35:16;18.00;99.90
20712;DHT22;10517;50.742;4.224;2022-07-23T06:37:42;18.10;99.90
20712;DHT22;10517;50.742;4.224;2022-07-23T06:40:08;18.20;99.90
20712;DHT22;10517;50.742;4.224;2022-07-23T06:42:33;18.20;99.90
20712;DHT22;10517;50.742;4.224;2022-07-23T06:45:03;18.30;99.90
20712;DHT22;10517;50.742;4.224;2022-07-23T06:47:28;18.30;99.90
20712;DHT22;10517;50.742;4.224;2022-07-23T06:49:54;18.30;99.90
20712;DHT22;10517;50.742;4.224;2022-07-23T06:52:19;18.40;99.90
20712;DHT22;10517;50.742;4.224;2022-07-23T06:54:45;18.30;99.90
20712;DHT22;10517;50.742;4.224;2022-07-23T06:57:11;18.20;99.90
20712;DHT22;10517;50.742;4.224;2022-07-23T06:59:36;18.20;99.90
20712;DHT22;10517;50.742;4.224;2022-07-23T07:02:06;18.30;99.90
20712;DHT22;10517;50.742;4.224;2022-07-23T07:04:31;18.30;99.90
20712;DHT22;10517;50.742;4.224;2022-07-23T07:06:57;18.30;99.90
20712;DHT22;10517;50.742;4.224;2022-07-23T07:09:23;18.30;99.90
20712;DHT22;10517;50.742;4.224;2022-07-23T07:11:49;18.40;99.90
20712;DHT22;10517;50.742;4.224;2022-07-23T07:14:14;18.40;99.90
20712;DHT22;10517;50.742;4.224;2022-07-23T07:16:40;18.40;99.90
20712;DHT22;10517;50.742;4.224;2022-07-23T07:19:06;18.60;99.90
20712;DHT22;10517;50.742;4.224;2022-07-23T07:21:31;18.70;99.90
20712;DHT22;10517;50.742;4.224;2022-07-23T07:23:57;18.80;99.90
20712;DHT22;10517;50.742;4.224;2022-07-23T07:26:23;18.70;99.90
20712;DHT22;10517;50.742;4.224;2022-07-23T07:28:48;18.60;99.90
20712;DHT22;10517;50.742;4.224;2022-07-23T07:31:14;18.70;99.90
20712;DHT22;10517;50.742;4.224;2022-07-23T07:33:39;18.80;99.90
20712;DHT22;10517;50.742;4.224;2022-07-23T07:36:05;19.00;99.90
20712;DHT22;10517;50.742;4.224;2022-07-23T07:38:31;19.20;99.90
20712;DHT22;10517;50.742;4.224;2022-07-23T07:40:56;19.30;99.90
20712;DHT22;10517;50.742;4.224;2022-07-23T07:43:22;19.40;99.90
20712;DHT22;10517;50.742;4.224;2022-07-23T07:45:48;19.50;99.90
20712;DHT22;10517;50.742;4.224;2022-07-23T07:48:13;19.50;99.90
20712;DHT22;10517;50.742;4.224;2022-07-23T07:50:39;19.40;99.90
20712;DHT22;10517;50.742;4.224;2022-07-23T07:53:05;19.60;99.90
20712;DHT22;10517;50.742;4.224;2022-07-23T07:55:30;19.70;99.90
20712;DHT22;10517;50.742;4.224;2022-07-23T07:57:56;19.70;99.90
20712;DHT22;10517;50.742;4.224;2022-07-23T08:00:22;19.60;99.90
20712;DHT22;10517;50.742;4.224;2022-07-23T08:02:51;19.70;99.90
20712;DHT22;10517;50.742;4.224;2022-07-23T08:05:27;19.90;99.90
20712;DHT22;10517;50.742;4.224;2022-07-23T08:07:53;19.90;99.90
20712;DHT22;10517;50.742;4.224;2022-07-23T08:10:19;19.90;99.90
20712;DHT22;10517;50.742;4.224;2022-07-23T08:12:47;19.80;99.90
20712;DHT22;10517;50.742;4.224;2022-07-23T08:15:14;19.90;99.90
20712;DHT22;10517;50.742;4.224;2022-07-23T08:17:41;19.90;99.90
20712;DHT22;10517;50.742;4.224;2022-07-23T08:20:08;19.90;99.90
20712;DHT22;10517;50.742;4.224;2022-07-23T08:25:19;19.90;99.90
20712;DHT22;10517;50.742;4.224;2022-07-23T08:27:45;20.00;99.90
20712;DHT22;10517;50.742;4.224;2022-07-23T08:30:14;20.20;99.90
20712;DHT22;10517;50.742;4.224;2022-07-23T08:32:51;20.40;99.90
20712;DHT22;10517;50.742;4.224;2022-07-23T08:35:18;20.60;99.90
20712;DHT22;10517;50.742;4.224;2022-07-23T08:37:43;20.70;99.90
20712;DHT22;10517;50.742;4.224;2022-07-23T08:40:14;20.60;99.90
20712;DHT22;10517;50.742;4.224;2022-07-23T08:42:39;20.60;99.90
20712;DHT22;10517;50.742;4.224;2022-07-23T08:45:07;20.60;99.90
20712;DHT22;10517;50.742;4.224;2022-07-23T08:47:35;20.60;99.90
20712;DHT22;10517;50.742;4.224;2022-07-23T08:50:01;20.90;99.90
20712;DHT22;10517;50.742;4.224;2022-07-23T08:52:27;20.90;99.90
20712;DHT22;10517;50.742;4.224;2022-07-23T08:54:55;21.00;99.90
20712;DHT22;10517;50.742;4.224;2022-07-23T08:57:21;21.00;99.90
20712;DHT22;10517;50.742;4.224;2022-07-23T08:59:50;20.80;99.90
20712;DHT22;10517;50.742;4.224;2022-07-23T09:02:15;20.80;99.90
20712;DHT22;10517;50.742;4.224;2022-07-23T09:04:41;20.70;99.90
20712;DHT22;10517;50.742;4.224;2022-07-23T09:07:06;20.80;99.90
20712;DHT22;10517;50.742;4.224;2022-07-23T09:09:33;21.00;99.90
20712;DHT22;10517;50.742;4.224;2022-07-23T09:12:04;21.20;99.90
20712;DHT22;10517;50.742;4.224;2022-07-23T09:14:56;21.30;99.90
20712;DHT22;10517;50.742;4.224;2022-07-23T09:17:37;21.40;99.90
20712;DHT22;10517;50.742;4.224;2022-07-23T09:20:11;21.50;99.90
20712;DHT22;10517;50.742;4.224;2022-07-23T09:22:38;21.80;99.90
20712;DHT22;10517;50.742;4.224;2022-07-23T09:25:12;22.20;99.90
20712;DHT22;10517;50.742;4.224;2022-07-23T09:27:49;22.10;99.90
20712;DHT22;10517;50.742;4.224;2022-07-23T09:30:16;22.00;99.90
20712;DHT22;10517;50.742;4.224;2022-07-23T09:32:42;22.00;99.90
20712;DHT22;10517;50.742;4.224;2022-07-23T09:35:08;21.90;99.90
20712;DHT22;10517;50.742;4.224;2022-07-23T09:37:33;21.70;99.90
20712;DHT22;10517;50.742;4.224;2022-07-23T09:40:09;21.70;99.90
20712;DHT22;10517;50.742;4.224;2022-07-23T09:42:37;21.90;99.90
20712;DHT22;10517;50.742;4.224;2022-07-23T09:45:03;22.00;99.90
20712;DHT22;10517;50.742;4.224;2022-07-23T09:47:30;22.10;99.90
20712;DHT22;10517;50.742;4.224;2022-07-23T09:50:10;22.40;99.90
20712;DHT22;10517;50.742;4.224;2022-07-23T09:52:48;22.70;99.90
20712;DHT22;10517;50.742;4.224;2022-07-23T09:55:14;22.70;99.90
20712;DHT22;10517;50.742;4.224;2022-07-23T09:57:41;22.50;99.90
20712;DHT22;10517;50.742;4.224;2022-07-23T10:00:08;22.40;99.90
20712;DHT22;10517;50.742;4.224;2022-07-23T10:02:38;22.20;99.90
20712;DHT22;10517;50.742;4.224;2022-07-23T10:05:05;22.40;99.90
20712;DHT22;10517;50.742;4.224;2022-07-23T10:07:40;22.80;99.90
20712;DHT22;10517;50.742;4.224;2022-07-23T10:10:07;23.30;99.90
20712;DHT22;10517;50.742;4.224;2022-07-23T10:12:33;23.40;99.90
20712;DHT22;10517;50.742;4.224;2022-07-23T10:15:20;23.80;99.90
20712;DHT22;10517;50.742;4.224;2022-07-23T10:17:49;23.90;99.90
20712;DHT22;10517;50.742;4.224;2022-07-23T10:20:15;23.50;99.90
20712;DHT22;10517;50.742;4.224;2022-07-23T10:22:47;23.50;99.90
20712;DHT22;10517;50.742;4.224;2022-07-23T10:25:27;23.50;99.90
20712;DHT22;10517;50.742;4.224;2022-07-23T10:33:30;23.80;99.90
20712;DHT22;10517;50.742;4.224;2022-07-23T10:38:41;24.30;99.90
20712;DHT22;10517;50.742;4.224;2022-07-23T10:41:11;24.70;99.90
20712;DHT22;10517;50.742;4.224;2022-07-23T10:43:36;24.70;99.90
20712;DHT22;10517;50.742;4.224;2022-07-23T10:46:22;24.50;99.90
20712;DHT22;10517;50.742;4.224;2022-07-23T10:54:39;24.50;99.90
20712;DHT22;10517;50.742;4.224;2022-07-23T10:57:06;24.50;99.90
20712;DHT22;10517;50.742;4.224;2022-07-23T11:02:35;24.80;99.90
20712;DHT22;10517;50.742;4.224;2022-07-23T11:05:08;24.90;99.90
20712;DHT22;10517;50.742;4.224;2022-07-23T11:07:35;24.70;99.90
20712;DHT22;10517;50.742;4.224;2022-07-23T11:10:01;24.90;99.90
20712;DHT22;10517;50.742;4.224;2022-07-23T11:15:13;24.70;99.90
20712;DHT22;10517;50.742;4.224;2022-07-23T11:17:59;24.60;99.90
20712;DHT22;10517;50.742;4.224;2022-07-23T11:20:27;24.60;99.90
20712;DHT22;10517;50.742;4.224;2022-07-23T11:22:58;24.80;99.90
20712;DHT22;10517;50.742;4.224;2022-07-23T11:28:09;25.00;99.90
20712;DHT22;10517;50.742;4.224;2022-07-23T11:30:41;25.40;99.90
20712;DHT22;10517;50.742;4.224;2022-07-23T11:35:36;26.20;99.90
20712;DHT22;10517;50.742;4.224;2022-07-23T11:38:12;26.20;99.90
20712;DHT22;10517;50.742;4.224;2022-07-23T11:40:41;26.10;99.90
20712;DHT22;10517;50.742;4.224;2022-07-23T11:43:08;26.30;99.90
20712;DHT22;10517;50.742;4.224;2022-07-23T11:45:39;26.50;99.90
20712;DHT22;10517;50.742;4.224;2022-07-23T11:48:08;26.90;99.90
20712;DHT22;10517;50.742;4.224;2022-07-23T11:50:35;27.00;99.90
20712;DHT22;10517;50.742;4.224;2022-07-23T11:53:01;27.20;99.90
20712;DHT22;10517;50.742;4.224;2022-07-23T11:55:27;27.30;99.90
20712;DHT22;10517;50.742;4.224;2022-07-23T11:57:55;27.50;99.90
20712;DHT22;10517;50.742;4.224;2022-07-23T12:00:24;27.40;99.90
20712;DHT22;10517;50.742;4.224;2022-07-23T12:02:53;26.70;99.90
20712;DHT22;10517;50.742;4.224;2022-07-23T12:05:23;26.40;99.90
20712;DHT22;10517;50.742;4.224;2022-07-23T12:07:51;26.10;99.90
20712;DHT22;10517;50.742;4.224;2022-07-23T12:10:27;25.90;99.90
20712;DHT22;10517;50.742;4.224;2022-07-23T12:13:20;26.00;99.90
20712;DHT22;10517;50.742;4.224;2022-07-23T12:15:51;26.40;99.90
20712;DHT22;10517;50.742;4.224;2022-07-23T12:18:19;26.60;99.90
20712;DHT22;10517;50.742;4.224;2022-07-23T12:20:48;27.00;99.90
20712;DHT22;10517;50.742;4.224;2022-07-23T12:23:17;27.50;99.90
20712;DHT22;10517;50.742;4.224;2022-07-23T12:25:45;28.00;99.90
20712;DHT22;10517;50.742;4.224;2022-07-23T12:28:28;28.50;99.90
20712;DHT22;10517;50.742;4.224;2022-07-23T12:30:55;28.80;99.90
20712;DHT22;10517;50.742;4.224;2022-07-23T12:33:37;28.80;99.90
20712;DHT22;10517;50.742;4.224;2022-07-23T12:36:06;29.10;99.90
20712;DHT22;10517;50.742;4.224;2022-07-23T12:38:43;29.60;99.90
20712;DHT22;10517;50.742;4.224;2022-07-23T12:41:11;29.60;99.90
20712;DHT22;10517;50.742;4.224;2022-07-23T12:43:39;29.30;99.90
20712;DHT22;10517;50.742;4.224;2022-07-23T12:46:15;28.80;99.90
20712;DHT22;10517;50.742;4.224;2022-07-23T12:51:19;28.30;99.90
20712;DHT22;10517;50.742;4.224;2022-07-23T12:53:50;28.50;99.90
20712;DHT22;10517;50.742;4.224;2022-07-23T12:58:46;28.70;99.90
20712;DHT22;10517;50.742;4.224;2022-07-23T13:06:29;29.50;99.90
20712;DHT22;10517;50.742;4.224;2022-07-23T13:08:55;30.10;99.90
20712;DHT22;10517;50.742;4.224;2022-07-23T13:11:21;29.80;99.90
20712;DHT22;10517;50.742;4.224;2022-07-23T13:13:46;30.00;99.90
20712;DHT22;10517;50.742;4.224;2022-07-23T13:16:12;30.60;99.90
20712;DHT22;10517;50.742;4.224;2022-07-23T13:18:37;31.50;99.90
20712;DHT22;10517;50.742;4.224;2022-07-23T13:21:03;31.10;99.90
20712;DHT22;10517;50.742;4.224;2022-07-23T13:23:29;31.90;99.90
20712;DHT22;10517;50.742;4.224;2022-07-23T13:25:55;33.60;99.10
20712;DHT22;10517;50.742;4.224;2022-07-23T13:28:22;34.70;99.00
20712;DHT22;10517;50.742;4.224;2022-07-23T13:30:49;35.40;94.90
20712;DHT22;10517;50.742;4.224;2022-07-23T13:33:16;35.70;94.00
20712;DHT22;10517;50.742;4.224;2022-07-23T13:35:42;35.50;91.30
20712;DHT22;10517;50.742;4.224;2022-07-23T13:38:09;36.50;92.20
20712;DHT22;10517;50.742;4.224;2022-07-23T13:40:36;36.80;89.60
20712;DHT22;10517;50.742;4.224;2022-07-23T13:43:05;37.60;85.00
20712;DHT22;10517;50.742;4.224;2022-07-23T13:45:31;38.80;86.10
20712;DHT22;10517;50.742;4.224;2022-07-23T13:47:57;37.90;78.20
20712;DHT22;10517;50.742;4.224;2022-07-23T13:50:23;37.30;78.80
20712;DHT22;10517;50.742;4.224;2022-07-23T13:52:49;36.50;79.90
20712;DHT22;10517;50.742;4.224;2022-07-23T13:55:15;35.10;81.40
20712;DHT22;10517;50.742;4.224;2022-07-23T13:57:40;34.60;87.20
20712;DHT22;10517;50.742;4.224;2022-07-23T14:00:08;35.20;83.60
20712;DHT22;10517;50.742;4.224;2022-07-23T14:02:36;35.50;83.50
20712;DHT22;10517;50.742;4.224;2022-07-23T14:05:07;34.90;81.60
20712;DHT22;10517;50.742;4.224;2022-07-23T14:07:34;35.60;79.00
20712;DHT22;10517;50.742;4.224;2022-07-23T14:09:59;36.30;81.30
20712;DHT22;10517;50.742;4.224;2022-07-23T14:12:26;37.40;74.70
20712;DHT22;10517;50.742;4.224;2022-07-23T14:14:51;37.70;78.10
20712;DHT22;10517;50.742;4.224;2022-07-23T14:17:17;38.00;77.10
20712;DHT22;10517;50.742;4.224;2022-07-23T14:19:43;37.80;73.70
20712;DHT22;10517;50.742;4.224;2022-07-23T14:22:09;38.80;70.90
20712;DHT22;10517;50.742;4.224;2022-07-23T14:24:34;40.10;71.80
20712;DHT22;10517;50.742;4.224;2022-07-23T14:27:02;41.20;69.10
20712;DHT22;10517;50.742;4.224;2022-07-23T14:29:28;41.90;63.60
20712;DHT22;10517;50.742;4.224;2022-07-23T14:31:53;42.40;62.70
20712;DHT22;10517;50.742;4.224;2022-07-23T14:34:19;42.30;62.20
20712;DHT22;10517;50.742;4.224;2022-07-23T14:36:47;42.00;60.20
20712;DHT22;10517;50.742;4.224;2022-07-23T14:39:13;39.80;61.00
20712;DHT22;10517;50.742;4.224;2022-07-23T14:41:39;39.40;63.80
20712;DHT22;10517;50.742;4.224;2022-07-23T14:44:05;39.30;61.00
20712;DHT22;10517;50.742;4.224;2022-07-23T14:46:31;39.20;63.80
20712;DHT22;10517;50.742;4.224;2022-07-23T14:48:57;39.30;62.50
20712;DHT22;10517;50.742;4.224;2022-07-23T14:51:22;39.50;63.30
20712;DHT22;10517;50.742;4.224;2022-07-23T14:53:48;38.10;62.30
20712;DHT22;10517;50.742;4.224;2022-07-23T14:56:14;37.40;62.60
20712;DHT22;10517;50.742;4.224;2022-07-23T14:58:40;38.00;63.00
20712;DHT22;10517;50.742;4.224;2022-07-23T15:01:06;39.50;61.50
20712;DHT22;10517;50.742;4.224;2022-07-23T15:03:32;40.70;59.60
20712;DHT22;10517;50.742;4.224;2022-07-23T15:05:58;41.80;56.60
20712;DHT22;10517;50.742;4.224;2022-07-23T15:08:24;40.80;58.10
20712;DHT22;10517;50.742;4.224;2022-07-23T15:10:50;42.00;57.70
20712;DHT22;10517;50.742;4.224;2022-07-23T15:13:15;42.80;57.10
20712;DHT22;10517;50.742;4.224;2022-07-23T15:15:41;42.50;56.20
20712;DHT22;10517;50.742;4.224;2022-07-23T15:18:07;39.30;56.50
20712;DHT22;10517;50.742;4.224;2022-07-23T15:20:33;38.80;57.90
20712;DHT22;10517;50.742;4.224;2022-07-23T15:22:59;39.70;59.70
20712;DHT22;10517;50.742;4.224;2022-07-23T15:25:24;40.10;56.20
20712;DHT22;10517;50.742;4.224;2022-07-23T15:27:50;39.90;57.80
20712;DHT22;10517;50.742;4.224;2022-07-23T15:30:15;40.00;57.90
20712;DHT22;10517;50.742;4.224;2022-07-23T15:32:41;41.60;57.10
20712;DHT22;10517;50.742;4.224;2022-07-23T15:35:07;41.30;58.40
20712;DHT22;10517;50.742;4.224;2022-07-23T15:37:34;41.80;57.50
20712;DHT22;10517;50.742;4.224;2022-07-23T15:40:00;42.00;55.50
20712;DHT22;10517;50.742;4.224;2022-07-23T15:42:26;42.70;55.20
20712;DHT22;10517;50.742;4.224;2022-07-23T15:44:52;43.60;53.30
20712;DHT22;10517;50.742;4.224;2022-07-23T15:47:18;43.10;53.00
20712;DHT22;10517;50.742;4.224;2022-07-23T15:49:46;43.10;54.50
20712;DHT22;10517;50.742;4.224;2022-07-23T15:52:12;42.80;52.90
20712;DHT22;10517;50.742;4.224;2022-07-23T15:54:38;40.60;53.60
20712;DHT22;10517;50.742;4.224;2022-07-23T15:57:04;39.60;55.50
20712;DHT22;10517;50.742;4.224;2022-07-23T15:59:30;39.30;56.20
20712;DHT22;10517;50.742;4.224;2022-07-23T16:01:56;38.40;57.60
20712;DHT22;10517;50.742;4.224;2022-07-23T16:04:22;39.80;55.60
20712;DHT22;10517;50.742;4.224;2022-07-23T16:06:48;41.30;54.50